CheckWX is a tool to help pilots better visualize weather data.  It is not intended as a substitute for an official pre-flight weather briefing.

04:22:29 UTC

CYVP METAR
Kuujjuaq Airport Airport
Kuujjuaq, Quebec, Canada
Current

22 mins ago

CYVP 110400Z 36007KT 15SM SCT160 BKN260 08/07 A2977 RMK AC3CI4 SLP085
Observed
Jul-11 @ 04:00 UTC
Wind
  • 360° at 7 KTS
Visibility
15 SM
Flight Rules
VFR
Cloud Levels
  • Scattered at 16,000' AGL
  • Broken at 26,000' AGL
Temperature
C / 46°F
Dewpoint
C / 45°F
Humidity
93%
Altimeter
29.77" Hg
Pressure
1008.12 hPa
Previous

1 hour ago

CYVP 110300Z 36009KT 15SM SCT160 BKN260 09/07 A2978 RMK AC3CI3 SLP089
Observed
Jul-11 @ 03:00 UTC
Wind
  • 360° at 9 KTS
Visibility
15 SM
Flight Rules
VFR
Cloud Levels
  • Scattered at 16,000' AGL
  • Broken at 26,000' AGL
Temperature
C / 48°F
Dewpoint
C / 45°F
Humidity
87%
Altimeter
29.78" Hg
Pressure
1008.42 hPa
Previous

2 hours ago

CYVP 110200Z 36008KT 15SM SCT160 BKN260 10/07 A2979 RMK AC3CI3 SLP091
Observed
Jul-11 @ 02:00 UTC
Wind
  • 360° at 8 KTS
Visibility
15 SM
Flight Rules
VFR
Cloud Levels
  • Scattered at 16,000' AGL
  • Broken at 26,000' AGL
Temperature
10°C / 50°F
Dewpoint
C / 45°F
Humidity
82%
Altimeter
29.79" Hg
Pressure
1008.82 hPa